createdAt,value
2022-12-18T00:01:54.937Z,-5.75
2022-12-18T00:07:00.052Z,-5.70
2022-12-18T00:17:17.500Z,-5.97
2022-12-18T00:22:19.304Z,-5.99
2022-12-18T00:27:20.972Z,-6.24
2022-12-18T00:32:22.728Z,-6.12
2022-12-18T00:37:25.414Z,-6.12
2022-12-18T00:42:45.576Z,-6.21
2022-12-18T00:47:47.760Z,-6.26
2022-12-18T00:52:49.839Z,-6.27
2022-12-18T00:57:53.345Z,-6.18
2022-12-18T01:02:55.194Z,-6.53
2022-12-18T01:07:57.416Z,-6.58
2022-12-18T01:12:59.127Z,-6.50
2022-12-18T01:18:00.854Z,-6.54
2022-12-18T01:23:03.534Z,-6.36
2022-12-18T01:28:11.272Z,-6.41
2022-12-18T01:33:13.019Z,-6.37
2022-12-18T01:38:14.662Z,-6.27
2022-12-18T01:43:16.311Z,-6.50
2022-12-18T01:48:17.980Z,-6.68
2022-12-18T01:53:22.665Z,-6.63
2022-12-18T01:58:49.354Z,-6.54
2022-12-18T02:03:52.480Z,-6.52
2022-12-18T02:09:07.255Z,-6.60
2022-12-18T02:14:44.132Z,-6.69
2022-12-18T02:19:57.939Z,-6.74
2022-12-18T02:25:22.507Z,-6.59
2022-12-18T02:30:24.734Z,-6.61
2022-12-18T02:35:30.525Z,-6.75
2022-12-18T02:40:32.889Z,-6.69
2022-12-18T02:45:34.625Z,-6.62
2022-12-18T02:50:44.801Z,-6.46
2022-12-18T02:56:12.682Z,-6.66
2022-12-18T03:01:25.565Z,-6.99
2022-12-18T03:06:44.585Z,-6.90
2022-12-18T03:12:14.212Z,-6.66
2022-12-18T03:17:21.255Z,-6.96
2022-12-18T03:22:25.951Z,-7.00
2022-12-18T03:27:30.826Z,-7.14
2022-12-18T03:38:54.964Z,-7.27
2022-12-18T03:44:29.868Z,-7.26
2022-12-18T03:50:09.600Z,-7.11
2022-12-18T03:55:14.192Z,-7.08
2022-12-18T04:00:19.152Z,-7.23
2022-12-18T04:05:22.900Z,-7.39
2022-12-18T04:10:24.620Z,-7.39
2022-12-18T04:15:26.446Z,-7.30
2022-12-18T04:20:28.131Z,-7.23
2022-12-18T04:25:30.069Z,-7.36
2022-12-18T04:30:31.730Z,-7.70
2022-12-18T04:35:33.327Z,-7.88
2022-12-18T04:40:36.699Z,-8.11
2022-12-18T04:45:38.405Z,-8.29
2022-12-18T04:50:40.025Z,-8.49
2022-12-18T04:55:42.580Z,-8.58
2022-12-18T05:00:44.240Z,-8.67
2022-12-18T05:05:45.896Z,-8.78
2022-12-18T05:10:47.544Z,-8.89
2022-12-18T05:15:53.659Z,-9.01
2022-12-18T05:20:55.898Z,-9.10
2022-12-18T05:26:00.631Z,-9.05
2022-12-18T05:31:04.203Z,-9.16
2022-12-18T05:36:08.608Z,-9.35
2022-12-18T05:41:10.380Z,-9.45
2022-12-18T05:46:17.574Z,-9.56
2022-12-18T05:51:21.182Z,-9.65
2022-12-18T05:56:24.096Z,-9.73
2022-12-18T06:01:27.718Z,-9.78
2022-12-18T06:06:29.989Z,-9.90
2022-12-18T06:11:31.603Z,-9.88
2022-12-18T06:16:33.860Z,-9.82
2022-12-18T06:21:35.768Z,-9.60
2022-12-18T06:26:39.890Z,-9.45
2022-12-18T06:31:41.626Z,-9.61
2022-12-18T06:36:43.348Z,-9.77
2022-12-18T06:41:45.774Z,-9.63
2022-12-18T06:46:47.555Z,-9.56
2022-12-18T06:51:49.159Z,-9.53
2022-12-18T06:56:50.876Z,-9.55
2022-12-18T07:01:52.863Z,-9.58
2022-12-18T07:06:54.612Z,-9.58
2022-12-18T07:11:57.160Z,-9.54
2022-12-18T07:16:59.647Z,-9.52
2022-12-18T07:22:02.643Z,-9.56
2022-12-18T07:27:04.797Z,-9.56
2022-12-18T07:32:34.374Z,-9.54
2022-12-18T07:37:36.999Z,-9.80
2022-12-18T07:42:38.852Z,-9.91
2022-12-18T07:47:42.292Z,-9.83
2022-12-18T07:52:44.054Z,-9.59
2022-12-18T07:57:51.285Z,-9.44
2022-12-18T08:02:54.530Z,-9.30
2022-12-18T08:07:57.480Z,-9.24
2022-12-18T08:13:04.704Z,-9.15
2022-12-18T08:18:10.179Z,-9.06
2022-12-18T08:23:15.688Z,-9.02
2022-12-18T08:28:17.436Z,-8.82
2022-12-18T08:33:19.365Z,-8.61
2022-12-18T08:38:21.158Z,-8.34
2022-12-18T08:43:41.687Z,-8.30
2022-12-18T08:48:44.690Z,-8.32
2022-12-18T08:53:47.237Z,-8.25
2022-12-18T08:58:48.900Z,-8.17
2022-12-18T09:03:52.372Z,-8.01
2022-12-18T09:08:54.299Z,-7.94
2022-12-18T09:13:57.440Z,-7.88
2022-12-18T09:19:00.952Z,-7.84
2022-12-18T09:24:03.357Z,-7.76
2022-12-18T09:29:05.671Z,-7.53
2022-12-18T09:34:08.798Z,-7.19
2022-12-18T09:39:10.501Z,-6.98
2022-12-18T09:44:19.399Z,-6.75
2022-12-18T09:49:26.523Z,-6.62
2022-12-18T09:54:37.023Z,-6.52
2022-12-18T10:06:13.134Z,-5.97
2022-12-18T10:11:41.430Z,-5.79
2022-12-18T10:16:55.920Z,-5.80
2022-12-18T10:22:12.249Z,-5.65
2022-12-18T10:27:17.179Z,-5.34
2022-12-18T10:32:21.856Z,-5.19
2022-12-18T10:37:26.671Z,-5.01
2022-12-18T10:42:28.344Z,-5.09
2022-12-18T10:47:30.220Z,-5.16
2022-12-18T10:52:32.052Z,-5.07
2022-12-18T10:57:42.715Z,-4.95
2022-12-18T11:02:44.677Z,-4.82
2022-12-18T11:07:51.815Z,-4.74
2022-12-18T11:12:54.677Z,-4.55
2022-12-18T11:17:56.949Z,-4.50
2022-12-18T11:23:12.338Z,-4.48
2022-12-18T11:29:24.143Z,-4.37
2022-12-18T11:34:32.223Z,-4.33
2022-12-18T11:39:43.307Z,-4.20
2022-12-18T11:45:00.014Z,-4.00
2022-12-18T11:50:03.746Z,-3.90
2022-12-18T11:55:13.179Z,-3.74
2022-12-18T12:00:20.698Z,-3.53
2022-12-18T12:05:52.341Z,-3.68
2022-12-18T12:11:09.069Z,-3.56
2022-12-18T12:16:42.046Z,-3.48
2022-12-18T12:22:18.592Z,-3.60
2022-12-18T12:27:35.127Z,-3.38
2022-12-18T12:32:50.779Z,-3.23
2022-12-18T12:38:07.307Z,-3.03
2022-12-18T12:43:50.529Z,-2.87
2022-12-18T12:49:16.943Z,-2.78
2022-12-18T12:54:25.767Z,-2.68
2022-12-18T12:59:49.392Z,-2.63
2022-12-18T13:05:19.035Z,-2.86
2022-12-18T13:10:27.106Z,-2.88
2022-12-18T13:21:03.259Z,-3.26
2022-12-18T13:26:11.515Z,-3.31
2022-12-18T13:31:41.825Z,-3.28
2022-12-18T13:36:43.836Z,-3.37
2022-12-18T13:41:50.038Z,-3.37
2022-12-18T13:46:53.637Z,-3.23
2022-12-18T13:51:57.494Z,-3.21
2022-12-18T13:57:01.840Z,-3.51
2022-12-18T14:02:14.901Z,-3.69
2022-12-18T14:07:20.669Z,-3.87
2022-12-18T14:12:46.426Z,-3.87
2022-12-18T14:17:52.050Z,-4.08
2022-12-18T14:22:54.091Z,-4.22
2022-12-18T14:28:08.487Z,-4.23
2022-12-18T14:33:21.591Z,-4.35
2022-12-18T14:38:40.994Z,-4.44
2022-12-18T14:43:45.248Z,-4.35
2022-12-18T14:48:49.086Z,-4.36
2022-12-18T14:54:16.090Z,-4.58
2022-12-18T14:59:24.642Z,-4.72
2022-12-18T15:04:31.831Z,-4.85
2022-12-18T15:09:33.732Z,-4.90
2022-12-18T15:14:42.011Z,-5.15
2022-12-18T15:19:46.623Z,-5.29
2022-12-18T15:24:49.032Z,-5.38
2022-12-18T15:30:09.661Z,-5.53
2022-12-18T15:35:26.834Z,-5.53
2022-12-18T15:40:47.384Z,-5.38
2022-12-18T15:46:12.835Z,-5.33
2022-12-18T15:51:22.882Z,-5.26
2022-12-18T15:56:44.836Z,-5.25
2022-12-18T16:01:49.387Z,-5.22
2022-12-18T16:07:14.326Z,-5.27
2022-12-18T16:12:23.374Z,-5.33
2022-12-18T16:17:25.749Z,-5.13
2022-12-18T16:22:29.670Z,-5.16
2022-12-18T16:27:31.931Z,-5.05
2022-12-18T16:32:34.947Z,-4.85
2022-12-18T16:37:37.271Z,-4.72
2022-12-18T16:42:41.366Z,-4.58
2022-12-18T16:47:43.594Z,-4.50
2022-12-18T16:52:45.300Z,-4.60
2022-12-18T16:57:47.157Z,-4.60
2022-12-18T17:02:48.919Z,-4.57
2022-12-18T17:07:50.794Z,-4.64
2022-12-18T17:12:52.714Z,-4.57
2022-12-18T17:17:54.348Z,-4.60
2022-12-18T17:22:59.281Z,-4.56
2022-12-18T17:28:02.634Z,-4.52
2022-12-18T17:33:04.692Z,-4.44
2022-12-18T17:38:07.182Z,-4.47
2022-12-18T17:43:10.028Z,-4.44
2022-12-18T17:48:12.392Z,-4.53
2022-12-18T17:53:17.561Z,-4.55
2022-12-18T17:58:19.317Z,-4.48
2022-12-18T18:03:21.723Z,-4.36
2022-12-18T18:08:24.662Z,-4.35
2022-12-18T18:13:47.126Z,-4.45
2022-12-18T18:18:49.090Z,-4.61
2022-12-18T18:23:52.389Z,-4.52
2022-12-18T18:28:55.919Z,-4.47
2022-12-18T18:33:59.375Z,-4.41
2022-12-18T18:39:02.389Z,-4.41
2022-12-18T18:44:06.282Z,-4.51
2022-12-18T18:49:08.452Z,-4.47
2022-12-18T18:54:11.507Z,-4.38
2022-12-18T18:59:15.660Z,-4.29
2022-12-18T19:04:17.415Z,-4.30
2022-12-18T19:09:23.265Z,-4.13
2022-12-18T19:14:25.230Z,-4.28
2022-12-18T19:19:27.350Z,-4.33
2022-12-18T19:24:29.431Z,-4.20
2022-12-18T19:29:31.137Z,-4.10
2022-12-18T19:34:34.513Z,-3.99
2022-12-18T19:39:36.247Z,-4.06
2022-12-18T19:44:38.100Z,-3.98
2022-12-18T19:49:39.957Z,-3.87
2022-12-18T19:54:43.834Z,-3.71
2022-12-18T19:59:45.594Z,-3.69
2022-12-18T20:04:49.896Z,-3.70
2022-12-18T20:09:59.594Z,-3.69
2022-12-18T20:15:04.856Z,-3.48
2022-12-18T20:20:07.215Z,-3.34
2022-12-18T20:25:10.671Z,-3.38
2022-12-18T20:30:13.679Z,-3.49
2022-12-18T20:35:18.115Z,-3.58
2022-12-18T20:40:20.668Z,-3.53
2022-12-18T20:45:23.174Z,-3.49
2022-12-18T20:50:24.978Z,-3.59
2022-12-18T20:55:26.735Z,-3.50
2022-12-18T21:00:29.339Z,-3.40
2022-12-18T21:05:31.132Z,-3.49
2022-12-18T21:10:34.353Z,-3.39
2022-12-18T21:15:36.920Z,-3.37
2022-12-18T21:20:38.579Z,-3.30
2022-12-18T21:25:40.229Z,-3.33
2022-12-18T21:30:41.938Z,-3.31
2022-12-18T21:35:43.601Z,-3.32
2022-12-18T21:40:45.307Z,-3.24
2022-12-18T21:45:47.209Z,-3.13
2022-12-18T21:50:48.947Z,-3.11
2022-12-18T21:56:00.457Z,-3.06
2022-12-18T22:01:02.242Z,-3.00
2022-12-18T22:06:09.515Z,-3.06
2022-12-18T22:11:12.692Z,-3.02
2022-12-18T22:16:14.351Z,-2.96
2022-12-18T22:21:34.586Z,-2.96
2022-12-18T22:26:40.148Z,-2.95
2022-12-18T22:31:42.276Z,-2.94
2022-12-18T22:36:46.759Z,-2.88
2022-12-18T22:41:48.831Z,-2.90
2022-12-18T22:46:56.234Z,-2.85
2022-12-18T22:52:09.541Z,-2.72
2022-12-18T22:57:11.277Z,-2.67
2022-12-18T23:02:13.106Z,-2.70
2022-12-18T23:07:15.647Z,-2.54
2022-12-18T23:12:18.771Z,-2.62
2022-12-18T23:17:20.459Z,-2.66
2022-12-18T23:22:22.179Z,-2.60
2022-12-18T23:27:23.825Z,-2.52
2022-12-18T23:32:25.589Z,-2.55
2022-12-18T23:37:50.231Z,-2.42
2022-12-18T23:42:48.724Z,-2.60
2022-12-18T23:47:51.295Z,-2.46
2022-12-18T23:52:53.128Z,-2.35
2022-12-18T23:57:54.802Z,-2.22
